createdAt,value
2017-05-13T00:00:08.103Z,15.25
2017-05-13T00:01:08.098Z,15.25
2017-05-13T00:02:08.091Z,15.21
2017-05-13T00:03:08.092Z,15.25
2017-05-13T00:04:08.082Z,15.2
2017-05-13T00:05:07.775Z,15.19
2017-05-13T00:06:08.074Z,15.23
2017-05-13T00:07:08.069Z,15.17
2017-05-13T00:08:07.761Z,15.16
2017-05-13T00:09:07.757Z,15.21
2017-05-13T00:10:07.754Z,15.23
2017-05-13T00:11:08.048Z,15.25
2017-05-13T00:12:07.438Z,15.21
2017-05-13T00:13:07.737Z,15.23
2017-05-13T00:14:08.037Z,15.21
2017-05-13T00:15:08.033Z,15.16
2017-05-13T00:16:08.026Z,15.17
2017-05-13T00:17:08.020Z,15.2
2017-05-13T00:18:08.020Z,15.23
2017-05-13T00:19:08.010Z,15.19
2017-05-13T00:20:07.698Z,15.17
2017-05-13T00:21:08.002Z,15.11
2017-05-13T00:22:07.696Z,15.1
2017-05-13T00:23:07.991Z,15.02
2017-05-13T00:24:07.986Z,15.03
2017-05-13T00:25:08.236Z,15.06
2017-05-13T00:26:07.983Z,15.01
2017-05-13T00:27:07.671Z,15.01
2017-05-13T00:28:07.967Z,14.99
2017-05-13T00:29:07.971Z,14.96
2017-05-13T00:30:07.913Z,15.01
2017-05-13T00:31:07.956Z,14.95
2017-05-13T00:32:07.951Z,14.94
2017-05-13T00:33:07.948Z,14.96
2017-05-13T00:34:07.635Z,14.91
2017-05-13T00:35:07.936Z,14.91
2017-05-13T00:36:07.938Z,14.95
2017-05-13T00:37:07.925Z,14.95
2017-05-13T00:38:07.923Z,14.96
2017-05-13T00:39:07.916Z,14.92
2017-05-13T00:40:08.162Z,14.91
2017-05-13T00:41:07.908Z,14.91
2017-05-13T00:42:07.604Z,14.91
2017-05-13T00:43:07.896Z,14.98
2017-05-13T00:44:07.898Z,14.98
2017-05-13T00:45:07.833Z,14.98
2017-05-13T00:46:07.885Z,14.91
2017-05-13T00:47:07.879Z,14.91
2017-05-13T00:48:07.571Z,14.94
2017-05-13T00:49:07.574Z,14.83
2017-05-13T00:50:07.861Z,14.91
2017-05-13T00:51:07.862Z,14.83
2017-05-13T00:52:07.857Z,14.92
2017-05-13T00:53:07.855Z,14.92
2017-05-13T00:54:07.547Z,14.98
2017-05-13T00:55:08.139Z,14.91
2017-05-13T00:56:07.833Z,15.01
2017-05-13T00:57:07.830Z,14.96
2017-05-13T00:58:07.829Z,14.98
2017-05-13T00:59:07.820Z,14.98
2017-05-13T01:00:08.062Z,14.99
2017-05-13T01:01:07.814Z,14.91
2017-05-13T01:02:07.803Z,15.02
2017-05-13T01:03:07.807Z,14.98
2017-05-13T01:04:07.796Z,14.98
2017-05-13T01:05:08.094Z,14.92
2017-05-13T01:06:07.786Z,14.91
2017-05-13T01:07:07.478Z,14.98
2017-05-13T01:08:07.778Z,14.98
2017-05-13T01:09:07.773Z,15.03
2017-05-13T01:10:08.066Z,15.06
2017-05-13T01:11:07.761Z,14.96
2017-05-13T01:12:07.763Z,15.03
2017-05-13T01:13:07.756Z,14.92
2017-05-13T01:14:07.445Z,14.99
2017-05-13T01:15:07.691Z,14.99
2017-05-13T01:16:07.740Z,15.02
2017-05-13T01:17:07.729Z,15.02
2017-05-13T01:18:07.728Z,15.07
2017-05-13T01:19:07.723Z,15.07
2017-05-13T01:20:07.669Z,15.09
2017-05-13T01:21:07.711Z,15.06
2017-05-13T01:22:07.708Z,15.16
2017-05-13T01:23:07.705Z,15.13
2017-05-13T01:24:07.704Z,15.17
2017-05-13T01:25:07.946Z,15.16
2017-05-13T01:26:07.386Z,15.09
2017-05-13T01:27:07.684Z,15.07
2017-05-13T01:28:07.677Z,14.95
2017-05-13T01:29:07.369Z,14.95
2017-05-13T01:30:07.665Z,14.86
2017-05-13T01:31:07.667Z,14.84
2017-05-13T01:32:07.657Z,14.8
2017-05-13T01:33:07.652Z,14.83
2017-05-13T01:34:07.348Z,14.88
2017-05-13T01:35:07.942Z,14.81
2017-05-13T01:36:07.637Z,14.72
2017-05-13T01:37:07.635Z,14.73
2017-05-13T01:38:07.629Z,14.75
2017-05-13T01:39:07.627Z,14.64
2017-05-13T01:40:07.871Z,14.65
2017-05-13T01:41:07.613Z,14.73
2017-05-13T01:42:07.608Z,14.7
2017-05-13T01:43:07.608Z,14.77
2017-05-13T01:44:07.596Z,14.77
2017-05-13T01:45:07.843Z,14.69
2017-05-13T01:46:07.591Z,14.73
2017-05-13T01:47:07.585Z,14.61
2017-05-13T01:48:07.578Z,14.7
2017-05-13T01:49:07.270Z,14.65
2017-05-13T01:50:07.514Z,14.69
2017-05-13T01:51:07.569Z,14.62
2017-05-13T01:52:07.561Z,14.7
2017-05-13T01:53:07.554Z,14.6
2017-05-13T01:54:07.549Z,14.65
2017-05-13T01:55:07.795Z,14.6
2017-05-13T01:56:07.542Z,14.61
2017-05-13T01:57:07.537Z,14.58
2017-05-13T01:58:07.534Z,14.55
2017-05-13T01:59:07.524Z,14.51
2017-05-13T02:00:07.821Z,14.58
2017-05-13T02:01:07.207Z,14.5
2017-05-13T02:02:07.507Z,14.37
2017-05-13T02:03:07.501Z,14.52
2017-05-13T02:04:07.499Z,14.46
2017-05-13T02:05:07.756Z,14.46
2017-05-13T02:06:07.182Z,14.42
2017-05-13T02:07:07.483Z,14.39
2017-05-13T02:08:07.476Z,14.39
2017-05-13T02:09:07.472Z,14.4
2017-05-13T02:10:07.825Z,14.39
2017-05-13T02:11:07.462Z,14.33
2017-05-13T02:12:07.457Z,14.2
2017-05-13T02:13:07.451Z,14.28
2017-05-13T02:14:07.458Z,14.27
2017-05-13T02:15:07.690Z,14.24
2017-05-13T02:16:07.435Z,14.24
2017-05-13T02:17:07.430Z,14.24
2017-05-13T02:18:07.424Z,14.35
2017-05-13T02:19:07.422Z,14.33
2017-05-13T02:20:07.669Z,14.27
2017-05-13T02:21:07.406Z,14.22
2017-05-13T02:22:07.446Z,14.21
2017-05-13T02:23:07.400Z,14.21
2017-05-13T02:24:07.392Z,14.17
2017-05-13T02:25:07.639Z,14.21
2017-05-13T02:26:07.381Z,14.25
2017-05-13T02:27:07.374Z,14.2
2017-05-13T02:28:07.371Z,14.22
2017-05-13T02:29:07.366Z,14.32
2017-05-13T02:30:07.660Z,14.33
2017-05-13T02:31:07.362Z,14.28
2017-05-13T02:32:07.352Z,14.29
2017-05-13T02:33:07.347Z,14.29
2017-05-13T02:34:07.346Z,14.18
2017-05-13T02:35:07.590Z,14.24
2017-05-13T02:36:07.324Z,14.17
2017-05-13T02:37:07.324Z,14.04
2017-05-13T02:38:07.016Z,14.1
2017-05-13T02:39:07.315Z,14.1
2017-05-13T02:40:07.554Z,14.02
2017-05-13T02:41:07.343Z,13.84
2017-05-13T02:42:07.294Z,13.88
2017-05-13T02:43:07.290Z,13.88
2017-05-13T02:44:07.286Z,13.88
2017-05-13T02:45:07.578Z,13.81
2017-05-13T02:46:07.272Z,13.88
2017-05-13T02:47:06.967Z,13.88
2017-05-13T02:48:07.265Z,13.7
2017-05-13T02:49:07.255Z,13.82
2017-05-13T02:50:07.498Z,13.79
2017-05-13T02:51:07.250Z,13.75
2017-05-13T02:52:06.989Z,13.78
2017-05-13T02:53:07.238Z,13.71
2017-05-13T02:54:07.231Z,13.7
2017-05-13T02:55:07.479Z,13.71
2017-05-13T02:56:07.214Z,13.6
2017-05-13T02:57:07.210Z,13.57
2017-05-13T02:58:06.908Z,13.62
2017-05-13T02:59:06.896Z,13.6
2017-05-13T03:00:07.492Z,13.6
2017-05-13T03:01:07.188Z,13.59
2017-05-13T03:02:07.180Z,13.66
2017-05-13T03:03:07.175Z,13.59
2017-05-13T03:04:07.169Z,13.63
2017-05-13T03:05:07.414Z,13.6
2017-05-13T03:06:07.162Z,13.57
2017-05-13T03:07:07.154Z,13.54
2017-05-13T03:08:07.147Z,13.52
2017-05-13T03:09:06.839Z,13.55
2017-05-13T03:10:06.834Z,13.57
2017-05-13T03:11:07.131Z,13.57
2017-05-13T03:12:07.127Z,13.52
2017-05-13T03:13:06.813Z,13.57
2017-05-13T03:14:07.114Z,13.57
2017-05-13T03:15:07.110Z,13.59
2017-05-13T03:16:07.103Z,13.57
2017-05-13T03:17:07.094Z,13.54
2017-05-13T03:18:06.785Z,13.57
2017-05-13T03:19:07.082Z,13.62
2017-05-13T03:20:07.078Z,13.52
2017-05-13T03:21:06.772Z,13.54
2017-05-13T03:22:07.105Z,13.55
2017-05-13T03:23:07.057Z,13.54
2017-05-13T03:24:07.094Z,13.54
2017-05-13T03:25:07.048Z,13.59
2017-05-13T03:26:06.738Z,13.62
2017-05-13T03:27:07.035Z,13.54
2017-05-13T03:28:07.029Z,13.54
2017-05-13T03:29:07.022Z,13.55
2017-05-13T03:30:07.031Z,13.6
2017-05-13T03:31:07.023Z,13.55
2017-05-13T03:32:06.704Z,13.48
2017-05-13T03:33:06.695Z,13.42
2017-05-13T03:34:07.045Z,13.38
2017-05-13T03:35:06.989Z,13.44
2017-05-13T03:36:06.981Z,13.36
2017-05-13T03:37:06.672Z,13.39
2017-05-13T03:38:06.978Z,13.38
2017-05-13T03:39:06.965Z,13.46
2017-05-13T03:40:06.960Z,13.33
2017-05-13T03:41:06.646Z,13.29
2017-05-13T03:42:06.950Z,13.32
2017-05-13T03:43:06.940Z,13.38
2017-05-13T03:44:06.938Z,13.26
2017-05-13T03:45:06.929Z,13.2
2017-05-13T03:46:06.925Z,13.23
2017-05-13T03:47:06.919Z,13.29
2017-05-13T03:48:06.914Z,13.22
2017-05-13T03:49:06.908Z,13.26
2017-05-13T03:50:06.901Z,13.22
2017-05-13T03:51:06.892Z,13.28
2017-05-13T03:52:06.890Z,13.25
2017-05-13T03:53:06.885Z,13.2
2017-05-13T03:54:06.875Z,13.3
2017-05-13T03:55:06.870Z,13.22
2017-05-13T03:56:06.863Z,13.19
2017-05-13T03:57:06.859Z,13.3
2017-05-13T03:58:06.855Z,13.26
2017-05-13T03:59:06.846Z,13.33
2017-05-13T04:00:06.540Z,13.29
2017-05-13T04:01:06.834Z,13.38
2017-05-13T04:02:06.828Z,13.41
2017-05-13T04:03:06.824Z,13.41
2017-05-13T04:04:06.821Z,13.33
2017-05-13T04:05:06.809Z,13.39
2017-05-13T04:06:06.806Z,13.38
2017-05-13T04:07:06.797Z,13.44
2017-05-13T04:08:06.792Z,13.42
2017-05-13T04:09:06.787Z,13.44
2017-05-13T04:10:06.781Z,13.41
2017-05-13T04:11:06.775Z,13.44
2017-05-13T04:12:06.771Z,13.46
2017-05-13T04:13:06.760Z,13.44
2017-05-13T04:14:06.756Z,13.45
2017-05-13T04:15:06.754Z,13.33
2017-05-13T04:16:06.744Z,13.32
2017-05-13T04:17:06.744Z,13.32
2017-05-13T04:18:06.429Z,13.33
2017-05-13T04:19:06.729Z,13.3
2017-05-13T04:20:06.723Z,13.23
2017-05-13T04:21:06.716Z,13.22
2017-05-13T04:22:06.707Z,13.23
2017-05-13T04:23:06.700Z,13.3
2017-05-13T04:24:06.695Z,13.28
2017-05-13T04:25:06.728Z,13.29
2017-05-13T04:26:06.684Z,13.3
2017-05-13T04:27:06.717Z,13.39
2017-05-13T04:28:06.672Z,13.23
2017-05-13T04:29:06.666Z,13.19
2017-05-13T04:30:06.657Z,13.28
2017-05-13T04:31:06.651Z,13.29
2017-05-13T04:32:06.647Z,13.36
2017-05-13T04:33:06.643Z,13.39
2017-05-13T04:34:06.334Z,13.41
2017-05-13T04:35:06.325Z,13.45
2017-05-13T04:36:06.630Z,13.36
2017-05-13T04:37:06.616Z,13.33
2017-05-13T04:38:06.612Z,13.39
2017-05-13T04:39:06.608Z,13.42
2017-05-13T04:40:06.598Z,13.44
2017-05-13T04:41:06.593Z,13.39
2017-05-13T04:42:06.286Z,13.32
2017-05-13T04:43:06.582Z,13.29
2017-05-13T04:44:06.576Z,13.28
2017-05-13T04:45:06.576Z,13.3
2017-05-13T04:46:06.259Z,13.25
2017-05-13T04:47:06.257Z,13.32
2017-05-13T04:48:06.551Z,13.36
2017-05-13T04:49:06.551Z,13.45
2017-05-13T04:50:06.541Z,13.44
2017-05-13T04:51:06.569Z,13.44
2017-05-13T04:52:06.527Z,13.44
2017-05-13T04:53:06.522Z,13.41
2017-05-13T04:54:06.515Z,13.44
2017-05-13T04:55:06.514Z,13.41
2017-05-13T04:56:06.505Z,13.48
2017-05-13T04:57:06.504Z,13.52
2017-05-13T04:58:06.192Z,13.59
2017-05-13T04:59:06.491Z,13.62
2017-05-13T05:00:06.489Z,13.67
2017-05-13T05:01:06.731Z,13.66
2017-05-13T05:02:06.470Z,13.64
2017-05-13T05:03:06.467Z,13.75
2017-05-13T05:04:06.460Z,13.69
2017-05-13T05:05:06.455Z,13.75
2017-05-13T05:06:06.699Z,13.75
2017-05-13T05:07:06.445Z,13.77
2017-05-13T05:08:06.438Z,13.75
2017-05-13T05:09:06.130Z,13.82
2017-05-13T05:10:06.429Z,13.92
2017-05-13T05:11:06.722Z,13.89
2017-05-13T05:12:06.111Z,14.04
2017-05-13T05:13:06.106Z,14.06
2017-05-13T05:14:06.403Z,14.1
2017-05-13T05:15:06.398Z,14.22
2017-05-13T05:16:06.642Z,14.29
2017-05-13T05:17:06.396Z,14.33
2017-05-13T05:18:06.382Z,14.45
2017-05-13T05:19:06.077Z,14.47
2017-05-13T05:20:06.071Z,14.57
2017-05-13T05:21:06.315Z,14.65
2017-05-13T05:22:06.364Z,14.81
2017-05-13T05:23:06.366Z,14.88
2017-05-13T05:24:06.356Z,14.98
2017-05-13T05:25:06.349Z,15.1
2017-05-13T05:26:06.291Z,15.06
2017-05-13T05:27:06.338Z,15.14
2017-05-13T05:28:06.339Z,15.19
2017-05-13T05:29:06.027Z,15.23
2017-05-13T05:30:06.325Z,15.32
2017-05-13T05:31:06.319Z,15.34
2017-05-13T05:32:06.318Z,15.34
2017-05-13T05:33:06.312Z,15.34
2017-05-13T05:34:06.305Z,15.28
2017-05-13T05:35:06.308Z,15.32
2017-05-13T05:36:06.600Z,15.34
2017-05-13T05:37:05.990Z,15.38
2017-05-13T05:38:06.289Z,15.27
2017-05-13T05:39:06.285Z,15.28
2017-05-13T05:40:06.284Z,15.29
2017-05-13T05:41:06.532Z,15.31
2017-05-13T05:42:05.971Z,15.34
2017-05-13T05:43:06.268Z,15.44
2017-05-13T05:44:06.263Z,15.41
2017-05-13T05:45:06.259Z,15.47
2017-05-13T05:46:06.509Z,15.47
2017-05-13T05:47:06.250Z,15.39
2017-05-13T05:48:06.245Z,15.36
2017-05-13T05:49:06.240Z,15.44
2017-05-13T05:50:06.238Z,15.36
2017-05-13T05:51:06.531Z,15.43
2017-05-13T05:52:06.231Z,15.34
2017-05-13T05:53:06.222Z,15.34
2017-05-13T05:54:06.227Z,15.38
2017-05-13T05:55:06.217Z,15.43
2017-05-13T05:56:06.510Z,15.47
2017-05-13T05:57:06.206Z,15.44
2017-05-13T05:58:06.200Z,15.39
2017-05-13T05:59:06.195Z,15.34
2017-05-13T06:00:05.887Z,15.38
2017-05-13T06:01:06.495Z,15.46
2017-05-13T06:02:06.184Z,15.46
2017-05-13T06:03:06.182Z,15.44
2017-05-13T06:04:05.873Z,15.47
2017-05-13T06:05:05.572Z,15.5
2017-05-13T06:06:06.463Z,15.39
2017-05-13T06:07:06.163Z,15.38
2017-05-13T06:08:06.158Z,15.38
2017-05-13T06:09:05.848Z,15.38
2017-05-13T06:10:05.842Z,15.34
2017-05-13T06:11:06.744Z,15.35
2017-05-13T06:12:06.137Z,15.25
2017-05-13T06:13:06.135Z,15.32
2017-05-13T06:14:06.133Z,15.38
2017-05-13T06:15:06.133Z,15.32
2017-05-13T06:16:06.370Z,15.34
2017-05-13T06:17:06.116Z,15.29
2017-05-13T06:18:06.131Z,15.27
2017-05-13T06:19:06.117Z,15.25
2017-05-13T06:20:05.798Z,15.32
2017-05-13T06:21:06.400Z,15.32
2017-05-13T06:22:06.093Z,15.29
2017-05-13T06:23:06.093Z,15.35
2017-05-13T06:24:06.083Z,15.44
2017-05-13T06:25:06.079Z,15.44
2017-05-13T06:26:06.375Z,15.46
2017-05-13T06:27:06.070Z,15.44
2017-05-13T06:28:06.065Z,15.5
2017-05-13T06:29:06.062Z,15.53
2017-05-13T06:30:06.058Z,15.54
2017-05-13T06:31:06.355Z,15.64
2017-05-13T06:32:06.050Z,15.78
2017-05-13T06:33:06.046Z,15.84
2017-05-13T06:34:06.047Z,15.9
2017-05-13T06:35:05.735Z,15.97
2017-05-13T06:36:06.333Z,16
2017-05-13T06:37:05.723Z,16.09
2017-05-13T06:38:05.720Z,16.2
2017-05-13T06:39:06.024Z,16.24
2017-05-13T06:40:06.020Z,16.3
2017-05-13T06:41:06.259Z,16.24
2017-05-13T06:42:05.405Z,16.28
2017-05-13T06:43:05.698Z,16.34
2017-05-13T06:44:05.695Z,16.34
2017-05-13T06:45:05.692Z,16.41
2017-05-13T06:46:06.292Z,16.38
2017-05-13T06:47:05.685Z,16.38
2017-05-13T06:48:06.027Z,16.34
2017-05-13T06:49:06.023Z,16.35
2017-05-13T06:50:05.977Z,16.34
2017-05-13T06:51:05.968Z,16.33
2017-05-13T06:52:05.968Z,16.33
2017-05-13T06:53:05.662Z,16.33
2017-05-13T06:54:05.961Z,16.38
2017-05-13T06:55:05.954Z,16.39
2017-05-13T06:56:06.245Z,16.39
2017-05-13T06:57:05.947Z,16.45
2017-05-13T06:58:05.944Z,16.38
2017-05-13T06:59:05.637Z,16.41
2017-05-13T07:00:05.340Z,16.42
2017-05-13T07:01:06.182Z,16.57
2017-05-13T07:02:05.930Z,16.53
2017-05-13T07:03:05.924Z,16.56
2017-05-13T07:04:05.921Z,16.42
2017-05-13T07:05:05.620Z,16.42
2017-05-13T07:06:06.173Z,16.33
2017-05-13T07:07:05.303Z,16.43
2017-05-13T07:08:05.905Z,16.43
2017-05-13T07:09:05.903Z,16.38
2017-05-13T07:10:05.897Z,16.52
2017-05-13T07:11:05.900Z,16.57
2017-05-13T07:12:05.585Z,16.5
2017-05-13T07:13:05.891Z,16.48
2017-05-13T07:14:05.883Z,16.43
2017-05-13T07:15:05.881Z,16.33
2017-05-13T07:16:06.175Z,16.31
2017-05-13T07:17:05.870Z,16.38
2017-05-13T07:18:05.874Z,16.5
2017-05-13T07:19:05.864Z,16.6
2017-05-13T07:20:05.859Z,16.7
2017-05-13T07:21:05.807Z,16.79
2017-05-13T07:22:05.867Z,17.03
2017-05-13T07:23:05.849Z,17.15
2017-05-13T07:24:05.846Z,17.26
2017-05-13T07:25:05.237Z,17.4
2017-05-13T07:26:06.193Z,17.64
2017-05-13T07:27:05.837Z,17.86
2017-05-13T07:28:05.836Z,17.95
2017-05-13T07:29:05.830Z,18.12
2017-05-13T07:30:05.826Z,18.21
2017-05-13T07:31:06.076Z,18.32
2017-05-13T07:32:05.827Z,18.36
2017-05-13T07:33:05.824Z,18.52
2017-05-13T07:34:05.818Z,18.55
2017-05-13T07:35:05.816Z,18.47
2017-05-13T07:36:06.114Z,18.54
2017-05-13T07:37:05.812Z,18.52
2017-05-13T07:38:05.507Z,18.48
2017-05-13T07:39:05.808Z,18.51
2017-05-13T07:40:05.501Z,18.37
2017-05-13T07:41:06.103Z,18.36
2017-05-13T07:42:05.798Z,18.44
2017-05-13T07:43:05.798Z,18.48
2017-05-13T07:44:05.795Z,18.52
2017-05-13T07:45:05.791Z,18.37
2017-05-13T07:46:06.043Z,18.48
2017-05-13T07:47:05.788Z,18.51
2017-05-13T07:48:05.785Z,18.51
2017-05-13T07:49:05.782Z,18.47
2017-05-13T07:50:05.782Z,18.51
2017-05-13T07:51:06.078Z,18.51
2017-05-13T07:52:05.779Z,18.41
2017-05-13T07:53:05.772Z,18.52
2017-05-13T07:54:05.472Z,18.42
2017-05-13T07:55:05.770Z,18.54
2017-05-13T07:56:06.071Z,18.48
2017-05-13T07:57:05.765Z,18.5
2017-05-13T07:58:05.460Z,18.57
2017-05-13T07:59:05.460Z,18.54
2017-05-13T08:00:05.758Z,18.62
2017-05-13T08:01:05.706Z,18.66
2017-05-13T08:02:05.760Z,18.66
2017-05-13T08:03:05.752Z,18.55
2017-05-13T08:04:05.753Z,18.57
2017-05-13T08:05:05.754Z,18.55
2017-05-13T08:06:05.998Z,18.6
2017-05-13T08:07:05.746Z,18.63
2017-05-13T08:08:05.742Z,18.67
2017-05-13T08:09:05.740Z,18.78
2017-05-13T08:10:05.737Z,18.9
2017-05-13T08:11:05.982Z,18.92
2017-05-13T08:12:05.732Z,18.95
2017-05-13T08:13:05.428Z,19.04
2017-05-13T08:14:05.729Z,19.02
2017-05-13T08:15:05.726Z,18.99
2017-05-13T08:16:06.034Z,18.99
2017-05-13T08:17:05.723Z,19.04
2017-05-13T08:18:05.720Z,18.98
2017-05-13T08:19:05.723Z,18.94
2017-05-13T08:20:05.720Z,18.88
2017-05-13T08:21:05.967Z,18.88
2017-05-13T08:22:05.713Z,18.9
2017-05-13T08:23:05.711Z,18.84
2017-05-13T08:24:05.711Z,18.81
2017-05-13T08:25:05.401Z,18.78
2017-05-13T08:26:05.956Z,18.82
2017-05-13T08:27:05.702Z,18.84
2017-05-13T08:28:05.398Z,18.78
2017-05-13T08:29:05.705Z,18.91
2017-05-13T08:30:05.698Z,18.94
2017-05-13T08:31:06.047Z,18.94
2017-05-13T08:32:05.744Z,18.94
2017-05-13T08:33:05.689Z,19.04
2017-05-13T08:34:05.383Z,18.95
2017-05-13T08:35:05.385Z,19.02
2017-05-13T08:36:05.933Z,19.06
2017-05-13T08:37:05.378Z,19.04
2017-05-13T08:38:05.678Z,19
2017-05-13T08:39:05.679Z,19.06
2017-05-13T08:40:05.382Z,19
2017-05-13T08:41:05.922Z,19.04
2017-05-13T08:42:05.668Z,19.02
2017-05-13T08:43:05.670Z,19.06
2017-05-13T08:44:05.662Z,19.06
2017-05-13T08:45:05.661Z,19.08
2017-05-13T08:46:05.966Z,19.16
2017-05-13T08:47:05.657Z,19.18
2017-05-13T08:48:05.655Z,19.19
2017-05-13T08:49:05.351Z,19.16
2017-05-13T08:50:05.650Z,19.19
2017-05-13T08:51:05.950Z,19.13
2017-05-13T08:52:05.647Z,19.16
2017-05-13T08:53:05.642Z,19.06
2017-05-13T08:54:05.642Z,19
2017-05-13T08:55:05.641Z,19.07
2017-05-13T08:56:05.941Z,18.95
2017-05-13T08:57:05.644Z,19
2017-05-13T08:58:05.330Z,18.98
2017-05-13T08:59:05.674Z,18.94
2017-05-13T09:00:05.631Z,18.9
2017-05-13T09:01:05.880Z,18.82
2017-05-13T09:02:05.629Z,18.75
2017-05-13T09:03:05.624Z,18.76
2017-05-13T09:04:05.623Z,18.78
2017-05-13T09:05:05.645Z,18.69
2017-05-13T09:06:05.564Z,18.66
2017-05-13T09:07:05.528Z,18.66
2017-05-13T09:08:05.608Z,18.62
2017-05-13T09:09:05.645Z,18.55
2017-05-13T09:10:05.606Z,18.44
2017-05-13T09:11:05.852Z,18.41
2017-05-13T09:12:05.602Z,18.47
2017-05-13T09:13:05.599Z,18.3
2017-05-13T09:14:05.593Z,18.3
2017-05-13T09:15:05.300Z,18.32
2017-05-13T09:16:05.841Z,18.39
2017-05-13T09:17:05.588Z,18.42
2017-05-13T09:18:05.586Z,18.29
2017-05-13T09:19:05.591Z,18.35
2017-05-13T09:20:05.278Z,18.36
2017-05-13T09:21:05.930Z,18.45
2017-05-13T09:22:05.276Z,18.42
2017-05-13T09:23:05.572Z,18.5
2017-05-13T09:24:05.572Z,18.47
2017-05-13T09:25:05.270Z,18.57
2017-05-13T09:26:05.868Z,18.47
2017-05-13T09:27:05.565Z,18.42
2017-05-13T09:28:05.565Z,18.52
2017-05-13T09:29:05.560Z,18.69
2017-05-13T09:30:05.255Z,18.69
2017-05-13T09:31:05.803Z,18.73
2017-05-13T09:32:05.557Z,18.82
2017-05-13T09:33:05.549Z,18.94
2017-05-13T09:34:05.546Z,18.98
2017-05-13T09:35:05.548Z,19.04
2017-05-13T09:36:05.793Z,19.02
2017-05-13T09:37:05.547Z,19.16
2017-05-13T09:38:05.537Z,19.14
2017-05-13T09:39:05.535Z,19.25
2017-05-13T09:40:05.539Z,19.37
2017-05-13T09:41:05.788Z,19.39
2017-05-13T09:42:05.257Z,19.41
2017-05-13T09:43:05.227Z,19.48
2017-05-13T09:44:05.221Z,19.51
2017-05-13T09:45:05.525Z,19.54
2017-05-13T09:46:05.824Z,19.62
2017-05-13T09:47:05.519Z,19.59
2017-05-13T09:48:05.215Z,19.66
2017-05-13T09:49:05.518Z,19.77
2017-05-13T09:50:05.516Z,19.74
2017-05-13T09:51:05.815Z,19.77
2017-05-13T09:52:05.208Z,19.87
2017-05-13T09:53:05.510Z,19.91
2017-05-13T09:54:05.511Z,20.08
2017-05-13T09:55:05.509Z,19.99
2017-05-13T09:56:05.760Z,20.18
2017-05-13T09:57:05.507Z,20.23
2017-05-13T09:58:05.201Z,20.32
2017-05-13T09:59:05.504Z,20.33
2017-05-13T10:00:05.499Z,20.57
2017-05-13T10:01:05.801Z,20.7
2017-05-13T10:02:05.502Z,20.61
2017-05-13T10:03:05.539Z,20.69
2017-05-13T10:04:05.497Z,20.79
2017-05-13T10:05:05.505Z,20.8
2017-05-13T10:06:05.745Z,20.82
2017-05-13T10:07:05.494Z,20.91
2017-05-13T10:08:05.493Z,20.99
2017-05-13T10:09:05.492Z,20.98
2017-05-13T10:10:05.496Z,21.14
2017-05-13T10:11:05.790Z,21.17
2017-05-13T10:12:05.490Z,21.14
2017-05-13T10:13:05.495Z,21.16
2017-05-13T10:14:05.489Z,21.16
2017-05-13T10:15:05.185Z,21.1
2017-05-13T10:16:05.739Z,21.1
2017-05-13T10:17:05.489Z,21.19
2017-05-13T10:18:05.494Z,21.12
2017-05-13T10:19:05.487Z,21.14
2017-05-13T10:20:05.186Z,21.13
2017-05-13T10:21:05.737Z,21.09
2017-05-13T10:22:05.184Z,21.07
2017-05-13T10:23:05.489Z,21.12
2017-05-13T10:24:05.486Z,21.13
2017-05-13T10:25:05.179Z,21.1
2017-05-13T10:26:05.785Z,21.1
2017-05-13T10:27:05.487Z,21.1
2017-05-13T10:28:05.181Z,21.14
2017-05-13T10:29:05.483Z,21.14
2017-05-13T10:30:05.483Z,21.14
2017-05-13T10:31:05.784Z,21.14
2017-05-13T10:32:05.183Z,21.19
2017-05-13T10:33:05.482Z,21.29
2017-05-13T10:34:05.481Z,21.31
2017-05-13T10:35:05.482Z,21.4
2017-05-13T10:36:05.429Z,21.47
2017-05-13T10:37:05.483Z,21.58
2017-05-13T10:38:05.481Z,21.62
2017-05-13T10:39:05.481Z,21.77
2017-05-13T10:40:05.175Z,21.83
2017-05-13T10:41:05.829Z,21.86
2017-05-13T10:42:05.482Z,21.94
2017-05-13T10:43:05.482Z,22.06
2017-05-13T10:44:05.179Z,22.07
2017-05-13T10:45:05.175Z,22
2017-05-13T10:46:05.780Z,22.06
2017-05-13T10:47:05.509Z,22.2
2017-05-13T10:48:05.177Z,22.22
2017-05-13T10:49:05.484Z,22.27
2017-05-13T10:50:05.488Z,22.39
2017-05-13T10:51:05.732Z,22.49
2017-05-13T10:52:05.486Z,22.61
2017-05-13T10:53:05.486Z,22.82
2017-05-13T10:54:05.491Z,22.9
2017-05-13T10:55:05.487Z,23
2017-05-13T10:56:05.742Z,23.1
2017-05-13T10:57:05.499Z,23.27
2017-05-13T10:58:05.489Z,23.33
2017-05-13T10:59:05.493Z,23.4
2017-05-13T11:00:05.189Z,23.57
2017-05-13T11:01:05.747Z,23.66
2017-05-13T11:02:05.500Z,23.73
2017-05-13T11:03:05.503Z,23.73
2017-05-13T11:04:05.502Z,23.83
2017-05-13T11:05:05.199Z,23.83
2017-05-13T11:06:05.506Z,23.8
2017-05-13T11:07:05.205Z,23.84
2017-05-13T11:08:05.508Z,23.8
2017-05-13T11:09:05.205Z,23.79
2017-05-13T11:10:05.211Z,23.79
2017-05-13T11:11:05.508Z,23.84
2017-05-13T11:12:05.213Z,23.76
2017-05-13T11:13:05.518Z,23.73
2017-05-13T11:14:05.215Z,23.66
2017-05-13T11:15:05.218Z,23.54
2017-05-13T11:16:05.772Z,23.54
2017-05-13T11:17:05.221Z,23.5
2017-05-13T11:18:05.527Z,23.54
2017-05-13T11:19:05.530Z,23.53
2017-05-13T11:20:05.226Z,23.51
2017-05-13T11:21:05.531Z,23.7
2017-05-13T11:22:05.231Z,23.78
2017-05-13T11:23:05.232Z,23.78
2017-05-13T11:24:05.540Z,23.8
2017-05-13T11:25:05.541Z,23.79
2017-05-13T11:26:05.881Z,23.91
2017-05-13T11:27:05.545Z,23.87
2017-05-13T11:28:05.546Z,23.79
2017-05-13T11:29:05.549Z,23.78
2017-05-13T11:30:05.556Z,23.79
2017-05-13T11:31:05.801Z,23.68
2017-05-13T11:32:05.556Z,23.66
2017-05-13T11:33:05.559Z,23.66
2017-05-13T11:34:05.558Z,23.73
2017-05-13T11:35:05.256Z,23.78
2017-05-13T11:36:05.814Z,23.95
2017-05-13T11:37:05.267Z,23.91
2017-05-13T11:38:05.570Z,23.95
2017-05-13T11:39:05.268Z,24.06
2017-05-13T11:40:05.274Z,24.08
2017-05-13T11:41:05.825Z,24.09
2017-05-13T11:42:05.577Z,24.22
2017-05-13T11:43:05.581Z,24.27
2017-05-13T11:44:05.583Z,24.4
2017-05-13T11:45:05.590Z,24.53
2017-05-13T11:46:05.841Z,24.81
2017-05-13T11:47:05.589Z,24.96
2017-05-13T11:48:05.595Z,25.06
2017-05-13T11:49:05.600Z,25.1
2017-05-13T11:50:05.598Z,25.13
2017-05-13T11:51:05.901Z,25.1
2017-05-13T11:52:05.603Z,25
2017-05-13T11:53:05.648Z,24.88
2017-05-13T11:54:05.613Z,24.93
2017-05-13T11:55:05.615Z,24.95
2017-05-13T11:56:05.969Z,25.06
2017-05-13T11:57:05.318Z,25.09
2017-05-13T11:58:05.624Z,25.17
2017-05-13T11:59:05.628Z,25.3
2017-05-13T12:00:05.331Z,25.3
2017-05-13T12:01:05.888Z,25.36
2017-05-13T12:02:05.638Z,25.33
2017-05-13T12:03:05.643Z,25.35
2017-05-13T12:04:05.646Z,25.28
2017-05-13T12:05:05.651Z,25.39
2017-05-13T12:06:06.006Z,25.4
2017-05-13T12:07:05.356Z,25.45
2017-05-13T12:08:05.663Z,25.51
2017-05-13T12:09:06.014Z,25.54
2017-05-13T12:10:05.372Z,25.55
2017-05-13T12:11:05.925Z,25.54
2017-05-13T12:12:05.688Z,25.62
2017-05-13T12:13:05.685Z,25.73
2017-05-13T12:14:05.687Z,25.85
2017-05-13T12:15:05.693Z,25.98
2017-05-13T12:16:05.947Z,25.98
2017-05-13T12:17:05.703Z,26.06
2017-05-13T12:18:05.705Z,26.18
2017-05-13T12:19:05.711Z,26.29
2017-05-13T12:20:05.414Z,26.37
2017-05-13T12:21:05.971Z,26.4
2017-05-13T12:22:05.724Z,26.62
2017-05-13T12:23:05.727Z,26.62
2017-05-13T12:24:05.731Z,26.44
2017-05-13T12:25:05.739Z,26.4
2017-05-13T12:26:06.091Z,26.54
2017-05-13T12:27:05.789Z,26.52
2017-05-13T12:28:05.753Z,26.6
2017-05-13T12:29:05.758Z,26.65
2017-05-13T12:30:05.768Z,26.51
2017-05-13T12:31:06.021Z,26.51
2017-05-13T12:32:05.776Z,26.45
2017-05-13T12:33:05.776Z,26.39
2017-05-13T12:34:05.786Z,26.4
2017-05-13T12:35:05.789Z,26.29
2017-05-13T12:36:05.741Z,26.29
2017-05-13T12:37:05.797Z,26.2
2017-05-13T12:38:05.504Z,26.06
2017-05-13T12:39:05.806Z,25.99
2017-05-13T12:40:05.812Z,26.05
2017-05-13T12:41:06.117Z,26.01
2017-05-13T12:42:05.830Z,25.97
2017-05-13T12:43:05.825Z,25.97
2017-05-13T12:44:05.832Z,26.05
2017-05-13T12:45:05.535Z,26.02
2017-05-13T12:46:05.847Z,26.06
2017-05-13T12:47:05.850Z,25.99
2017-05-13T12:48:05.847Z,25.92
2017-05-13T12:49:05.865Z,25.83
2017-05-13T12:50:05.860Z,25.79
2017-05-13T12:51:05.861Z,25.73
2017-05-13T12:52:05.875Z,25.64
2017-05-13T12:53:05.871Z,25.64
2017-05-13T12:54:05.877Z,25.73
2017-05-13T12:55:05.881Z,25.7
2017-05-13T12:56:05.582Z,25.76